Terminal Aerodrome Forecast
Issued by NWS Sterling, VA

Current Version | Previous Version | Text Only | Print | Product List | Glossary Off
Versions: 1 2 3 4 5 6 7 8 9 10 11 12 13 14 15 16 17 18 19 20 21 22 23 24 25 26 27 28 29 30 31 32 33

013
FTUS41 KLWX 162340
TAFIAD
TAF
KIAD 162340Z 1700/1806 34015G22KT P6SM BKN030 OVC150
     FM170100 33015G25KT P6SM SCT150
     FM170400 33009KT P6SM SKC
     FM170800 36005KT P6SM FEW250
     FM171300 05005KT P6SM SCT200
     FM171500 13005KT P6SM BKN100
     FM172100 15007KT 1SM -SNPL OVC020
     FM180300 21005KT 4SM -RASN OVC035=

USA.gov is the U.S. government's official web portal to all federal, state and local government web resources and services.